Haines Airport Haines US
ICAO: PAHN
IATA:
Category: Medium
Scheduled Services:

Elevation: 15 ft
TransAlt. 18000 ft.

Airport Communications:
ASOS:135.75
ANCHORAGE CNTR:132.3
CTAF:122.9
JUNEAU RDO:122.6
TWEB:24.5

PAHN Zoom In..

If you have problems with the map follow the link
https://www.worldairports.se/pages/airport.php?
ICAO=PAHN

Runways:

(A) RW 08 length 4000 ft width 100 ft
---- / hdg 86

(B) RW 26 length 4000 ft width 100 ft
---- / hdg 266

Location; PAHN
Day. 08 / Time. 11.54 Zulu
* Altimeter: 30.00
* Temperature: -02° c. -28.4°f.
* Wind from: 290° Speed 08 kn.
Dewpoint: -04° c.
Visibility: 2 m.
Clouds: Overcast 1700 ft.
Conditions: Light Snow.Conditions: Mist.

PAHN 081154Z AUTO 29008KT 2 1/2SM -SN BR OVC017 M02/M04 A3000 RMK AO2 SLP160 P0001 60004 70010 T10221039 11017 21028 51005 TSNO


Wind From 290°
Speed 08 kn.

 
 
jpsmedia worldairports.se 2019   terms of use